Sonic Adventure (DX): Time Rankings

Records: Times | Rings | Scores | Races | Bosses | Freestyle
Leaders: Times | Rings | Scores | Races | Bosses | Freestyle | Overall
Rank Player Percent Points Date
1 Gamepro011 99.1% 49 10-18-19
2 Sonicspeedruner 98.0% 116 10-18-19
3 Niczur 95.2% 277 10-18-19
4 Dashjump 94.0% 344 10-18-19
5 Jawzun 94.0% 348 10-18-19
6 DarkPolarNight 93.0% 401 10-18-19
7 drminus 90.9% 528 10-18-19
8 F-Man 90.7% 535 10-18-19
9 THC98 90.3% 560 10-18-19
10 ike6252 88.4% 671 10-18-19
11 Avento128bits 88.1% 689 10-18-19
12 francisco 87.7% 713 10-18-19
13 DarkspinesSonic 87.2% 743 10-18-19
14 ethmar 87.1% 744 10-18-19
15 Marth 87.1% 748 10-18-19
16 frankoredstrato 85.7% 825 10-18-19
17 TheRealShadnic 84.1% 920 10-18-19
18 chainchump 84.0% 925 10-18-19
19 Nim 83.6% 950 10-18-19
20 Paragod 82.8% 995 10-18-19
21 HyperSonic7701 82.7% 1001 10-18-19
22 Calfd 82.4% 1022 10-18-19
23 Coolfansonic 79.7% 1177 10-18-19
24 InferSaime 79.5% 1188 10-18-19
25 Stefan 78.2% 1263 10-18-19
26 xXMegaManXx 78.1% 1269 10-18-19
27 PfoSonic 77.6% 1298 10-18-19
28 bertin 75.9% 1399 10-18-19
29 yoshifan 75.5% 1419 10-18-19
30 Dave Cramer 73.8% 1519 10-18-19
31 RPGnutter 73.6% 1528 10-18-19
32 sonicam 72.0% 1623 10-18-19
33 Cybrax 71.6% 1647 10-18-19
34 Dekuboy 70.6% 1707 10-18-19
35 Ring Rush 69.1% 1794 10-18-19
36 mike89 68.2% 1843 10-18-19
37 NintenDan 68.0% 1854 10-18-19
38 chaos shadow 67.9% 1861 10-18-19
39 a_moustache 66.8% 1927 10-18-19
40 SkyLights 64.6% 2053 10-18-19
41 Combo 63.1% 2140 10-18-19
42 SADXTryHard 60.6% 2285 10-18-19
43 P1 Pause 60.2% 2310 10-18-19
44 WeegeeZV 59.0% 2378 10-18-19
45 Groudon199 58.3% 2418 10-18-19
46 AxlThunder 57.8% 2450 10-18-19
47 Game_Complete 57.6% 2460 10-18-19
48 Shadow Jacky 57.5% 2465 10-18-19
49 VMU Player Banned 56.7% 2510 10-18-19
50 Thorn 56.3% 2533 10-18-19
51 SB737 55.2% 2599 10-18-19
52 The Knuckles Chao 55.0% 2609 10-18-19
53 SadisticMystic 54.9% 2615 10-18-19
54 Chao_Fan 54.8% 2622 10-18-19
55 Parax 54.5% 2639 10-18-19
56 Mastakirby 54.3% 2652 10-18-19
57 KinkyCadence 53.9% 2676 10-18-19
58 mauserman 53.8% 2681 10-18-19
59 OmegaDJ 53.8% 2682 10-18-19
60 LittleBigness 53.7% 2684 10-18-19
61 Psyknux 53.6% 2693 10-18-19
62 Auriman1 53.1% 2720 10-18-19
63 magnum12 53.0% 2725 10-18-19
64 Turbos 52.6% 2750 10-18-19
65 GerbilSoft 51.9% 2789 10-18-19
66 GreatStar 51.6% 2806 10-18-19
67 Webber3000 51.3% 2828 10-18-19
68 Hipertails12 50.8% 2857 10-18-19
69 N 50.4% 2880 10-18-19
70 James_Bertolli 48.2% 3008 10-18-19
71 Cream147 47.8% 3027 10-18-19
72 SPVLABS 47.4% 3052 10-18-19
73 welldooder64 46.9% 3079 10-18-19
74 Skylace 46.9% 3082 10-18-19
75 Omega Rafael Santos 46.9% 3083 10-18-19
76 Diamond 46.6% 3096 10-18-19
76 Quartz 46.6% 3096 10-18-19
78 Psymar 46.4% 3108 10-18-19
79 SonicWinDX 45.8% 3147 10-18-19
80 teamblackarms 45.3% 3173 10-18-19
81 Cyan Ryan 44.8% 3202 10-18-19
82 Andrea Ritsu 44.6% 3215 10-18-19
83 buddychaos0415 44.5% 3219 10-18-19
84 SilverSonic 44.0% 3251 10-18-19
85 paulie9990 43.5% 3281 10-18-19
86 SilvertheAlmighty 43.4% 3284 10-18-19
87 itsPersonnal 42.9% 3315 10-18-19
88 metanightmare22 42.5% 3336 10-18-19
89 CoEmpathy 40.8% 3433 10-18-19
90 lordmetalsonic 40.3% 3463 10-18-19
91 Arch 40.0% 3482 10-18-19
92 Termon 39.1% 3532 10-18-19
93 videogamemaster777 39.1% 3534 10-18-19
94 supersonicfan 38.8% 3554 10-18-19
95 Drakodan 38.3% 3583 10-18-19
96 Kanimayo_Jp 38.0% 3598 10-18-19
97 LilZero 37.9% 3606 10-18-19
98 supersonic465 37.5% 3626 10-18-19
99 FuzZerd 37.5% 3628 10-18-19
100 JamminX42 37.0% 3657 10-18-19
101 eggFL 36.8% 3665 10-18-19
102 BigAL49 36.6% 3677 10-18-19
103 Don 36.4% 3691 10-18-19
104 danieldude 36.1% 3706 10-18-19
105 Fr3nZy 35.3% 3756 10-18-19
106 Siavash Tazari 35.2% 3762 10-18-19
107 Zurggriff 35.1% 3769 10-18-19
108 f0rever_zer0 34.3% 3811 10-18-19
109 Cod4Scopes 34.2% 3818 10-18-19
110 Austinf 33.5% 3857 10-18-19
111 LinksDarkArrows 33.3% 3872 10-18-19
112 Therio 33.2% 3875 10-18-19
113 elecmouse101 32.6% 3913 10-18-19
114 Staf 32.3% 3932 10-18-19
115 MiStEr_ShAoLiN 31.9% 3954 10-18-19
116 R3FR4G 31.8% 3957 10-18-19
117 ModifiedMonkee 31.8% 3958 10-18-19
118 Twilisailor 31.5% 3978 10-18-19
119 BrokenArthritis 31.4% 3980 10-18-19
120 videogamer1014 31.3% 3989 10-18-19
121 Xia 30.8% 4015 10-18-19
122 AC-Tygo 30.6% 4029 10-18-19
123 welshmoose05 30.3% 4043 10-18-19
124 OddCook 29.7% 4079 10-18-19
125 The Great Lord Mick 29.4% 4097 10-18-19
126 Mcshuggets 29.1% 4114 10-18-19
127 Aitamen 29.1% 4116 10-18-19
128 Maxinfamily 28.9% 4128 10-18-19
129 Matt_TY 28.6% 4144 10-18-19
130 joecoolgames 28.6% 4145 10-18-19
131 dabestgamer 28.2% 4165 10-18-19
132 Irregular Zero 28.1% 4174 10-18-19
133 SuperBlitzCraig 28.0% 4177 10-18-19
134 SuperSonic101 27.2% 4227 10-18-19
135 Shadowthegreat 26.9% 4240 10-18-19
136 superjupi 26.8% 4247 10-18-19
137 Hunters13 26.7% 4252 10-18-19
138 Rolken 26.4% 4270 10-18-19
138 thewaytodawnnn 26.4% 4270 10-18-19
140 sonamyfan666 26.0% 4296 10-18-19
141 iarebored 25.9% 4302 10-18-19
142 SaviourDC 25.8% 4304 10-18-19
143 koinu93 25.8% 4306 10-18-19
144 SonicKnuckles 25.6% 4316 10-18-19
145 Spinballwizard 25.6% 4317 10-18-19
146 EngiNerd 24.5% 4382 10-18-19
147 SonicAD 24.5% 4383 10-18-19
148 adf 24.5% 4384 10-18-19
149 Megaman EXE565 23.6% 4434 10-18-19
150 The T 23.5% 4440 10-18-19
151 Sonic Singularity 22.9% 4477 10-18-19
152 Pokemonmaster888 22.7% 4488 10-18-19
153 Platformer 22.6% 4491 10-18-19
154 SeaWolf 22.5% 4496 10-18-19
155 iden1 22.4% 4503 10-18-19
156 timpkmn89 22.3% 4510 10-18-19
157 Swift Hobo 22.2% 4514 10-18-19
158 Sondow 21.5% 4559 10-18-19
159 Rickyman48 21.4% 4561 10-18-19
160 FoxBoy 20.8% 4596 10-18-19
161 Sm4sh 20.8% 4597 10-18-19
162 KitsuneYamaro 20.8% 4598 10-18-19
163 TFEC Headshot 20.4% 4618 10-18-19
164 Jerzia 20.3% 4624 10-18-19
165 Kogen Player Banned 19.7% 4660 10-18-19
166 Badlex727 19.7% 4662 10-18-19
167 Starlight Sable 19.6% 4664 10-18-19
168 IsisDazs 19.1% 4696 10-18-19
169 Powerjohn25 18.8% 4713 10-18-19
170 HyperSonic64 18.7% 4717 10-18-19
171 crazy1993 18.6% 4726 10-18-19
172 andres430 18.3% 4740 10-18-19
173 SonicU260 17.2% 4805 10-18-19
174 Swinkly 17.1% 4813 10-18-19
175 MPit08 16.9% 4823 10-18-19
176 sonicd5 16.9% 4826 10-18-19
177 iSonicKid2K 16.3% 4858 10-18-19
178 dShadow 16.0% 4876 10-18-19
179 Miles9999 15.7% 4893 10-18-19
180 Cutiefox 15.7% 4895 10-18-19
181 Chawkk 15.6% 4897 10-18-19
182 Monkeh 15.4% 4911 10-18-19
183 Crispian 15.3% 4914 10-18-19
184 DaDude 14.9% 4938 10-18-19
185 Drflash55 14.6% 4959 10-18-19
186 Bass 14.2% 4978 10-18-19
187 Yish 14.2% 4982 10-18-19
188 Cruizer 14.1% 4985 10-18-19
189 Destroyer121121 14.1% 4988 10-18-19
190 zapp 14.0% 4994 10-18-19
191 neaolas 13.9% 4996 10-18-19
192 UninspiredUsername 13.9% 4998 10-18-19
193 superiorsonic 13.7% 5008 10-18-19
194 gamefreak1292 13.6% 5017 10-18-19
195 Cooljay 13.1% 5047 10-18-19
196 Sora_yx 13.0% 5048 10-18-19
197 Chaos_Overlord 12.4% 5084 10-18-19
198 Valfore 12.1% 5104 10-18-19
199 Dage4Aquatic 11.8% 5122 10-18-19
200 GarnetPrincess 11.7% 5123 10-18-19
201 ShinigamiMachine 11.6% 5131 10-18-19
202 soniccoloursunleashed 11.5% 5136 10-18-19
203 Sonicsuperstar1 11.1% 5159 10-18-19
204 FocusSight64 10.8% 5179 10-18-19
205 Werey 10.7% 5184 10-18-19
206 booo95 10.6% 5192 10-18-19
207 Mo Player Banned 10.5% 5197 10-18-19
208 SirTobbii 10.4% 5201 10-18-19
209 Jua Rever 10.3% 5208 10-18-19
210 sonicspeed 10.2% 5211 10-18-19
211 Venick409 9.6% 5247 10-18-19
212 nman36 9.4% 5259 10-18-19
212 Sithwarrior26 9.4% 5259 10-18-19
214 ingx24 8.9% 5288 10-18-19
215 CyberShadow 8.9% 5289 10-18-19
216 dekki1234 8.5% 5310 10-18-19
217 Fozer 8.3% 5321 10-18-19
218 Egor305 8.3% 5325 10-18-19
219 Regano1000 8.2% 5331 10-18-19
220 Colomb_30 8.1% 5333 10-18-19
221 1stKirbyever 7.9% 5344 10-18-19
222 nuckrieg 7.7% 5360 10-18-19
223 TimTH 7.6% 5362 10-18-19
224 Brian_pso 7.6% 5366 10-18-19
225 douglas 7.3% 5381 10-18-19
226 TakaRikka 7.3% 5383 10-18-19
227 Th4tN1nj4Turtl3 7.2% 5388 10-18-19
228 Zip 7.0% 5397 10-18-19
229 Mariosonic15 6.8% 5413 10-18-19
229 wheatrich 6.8% 5413 10-18-19
231 MStitomix 6.6% 5423 10-18-19
232 ieatatsonic 6.5% 5427 10-18-19
233 HermitHelmet 6.5% 5429 10-18-19
234 niscool 6.4% 5432 10-18-19
235 Cort_pso 6.2% 5444 10-18-19
236 Got4n 6.1% 5449 10-18-19
237 Triseena 6.0% 5458 10-18-19
238 Jose_15 5.9% 5464 10-18-19
239 Artie 5.7% 5476 10-18-19
240 BlankTH 5.6% 5478 10-18-19
240 SuperSonicfan9595 5.6% 5478 10-18-19
242 HHNNBBHHN 5.4% 5492 10-18-19
243 Ace747 5.4% 5493 10-18-19
244 Richied 5.2% 5501 10-18-19
245 Paixii 5.2% 5504 10-18-19
246 Aiko 5.1% 5509 10-18-19
247 BallzeH 4.8% 5525 10-18-19
248 FSSRandomvids 4.8% 5526 10-18-19
248 slade23 4.8% 5526 10-18-19
250 PsyBorg 4.8% 5529 10-18-19
251 Jamixesa 4.7% 5531 10-18-19
252 Mankster101 4.7% 5532 10-18-19
253 ArcticDragon 4.7% 5533 10-18-19
254 BecauseWarAnvil 4.6% 5538 10-18-19
255 Nickson98 4.5% 5543 10-18-19
256 Crydio 4.5% 5546 10-18-19
257 TheUltraBlur 4.4% 5551 10-18-19
258 MarewBFN 4.2% 5564 10-18-19
259 stanski 4.1% 5566 10-18-19
260 tal39h 4.0% 5572 10-18-19
261 knuckles_sonic8 3.9% 5580 10-18-19
262 Blue Infamy 3.8% 5582 10-18-19
263 p0ker 3.8% 5585 10-18-19
264 ALundstrom10 3.8% 5586 10-18-19
265 ErrortheCucco 3.7% 5593 10-18-19
266 Rikum22 3.6% 5596 10-18-19
267 sonic1001 3.5% 5604 10-18-19
268 TheChaosEmeraIds 3.4% 5609 10-18-19
269 AJSIV 3.4% 5610 10-18-19
270 syco1098 3.3% 5611 10-18-19
271 Sonic the Hedgehod16 3.3% 5614 10-18-19
272 ASINISTERTACO 3.2% 5622 10-18-19
273 sonicfan9 3.1% 5625 10-18-19
274 themachoman202 2.9% 5638 10-18-19
275 MK 2.8% 5644 10-18-19
276 Fivavoa 2.7% 5647 10-18-19
277 Mr. Jones 2.7% 5649 10-18-19
278 djmat 2.7% 5651 10-18-19
279 arcfx1985 2.6% 5652 10-18-19
280 BlackArmsShadow 2.6% 5653 10-18-19
281 Sonique Hedgehog 2.6% 5655 10-18-19
282 ptorflaxendrosis 2.5% 5657 10-18-19
283 FlandreScarlet9999vr 2.5% 5659 10-18-19
284 Zeldocto 2.5% 5662 10-18-19
285 BeeAwwb 2.4% 5668 10-18-19
286 KaM Mark MaK 2.3% 5670 10-18-19
287 ShadouZaHejjihoggu 2.3% 5673 10-18-19
288 darkstarblaze 2.2% 5679 10-18-19
289 Sonic The Star 2.1% 5681 10-18-19
290 darkersupershadic 2.1% 5682 10-18-19
291 SpiritDragon1995 2.1% 5683 10-18-19
292 Sarger001 2.0% 5689 10-18-19
292 sonic29887 2.0% 5689 10-18-19
294 Grady219 2.0% 5691 10-18-19
295 shadowblast63 Player Banned 1.9% 5695 10-18-19
296 Jawaah 1.9% 5696 10-18-19
297 Antek 1.8% 5699 10-18-19
298 Klaus 1.8% 5701 10-18-19
299 BioShadow 1.7% 5708 10-18-19
300 IcKY 1.5% 5718 10-18-19
301 SkyBon 1.4% 5724 10-18-19
302 Shanekilz 1.4% 5725 10-18-19
303 isaihtb11 1.3% 5729 10-18-19
304 OhNoes! 1.3% 5730 10-18-19
305 zaktu40 1.3% 5731 10-18-19
306 ArthurVGCP 1.2% 5733 10-18-19
307 gaara1234 1.2% 5735 10-18-19
307 S-MS32X-S 1.2% 5735 10-18-19
309 MastaToken 1.1% 5742 10-18-19
310 Mister_Slick 1.0% 5746 10-18-19
311 Sonic06Fan 1.0% 5749 10-18-19
312 Rush Hero 0.9% 5751 10-18-19
313 ChaosNexuss 0.9% 5752 10-18-19
314 oTaiIilLsS 0.8% 5756 10-18-19
315 SonicMega167 0.8% 5757 10-18-19
316 gamed00d 0.8% 5760 10-18-19
316 SilverK 0.8% 5760 10-18-19
318 Burningskull123 0.5% 5776 10-18-19
319 Heroes_Hater 0.5% 5778 10-18-19
320 Sonicontherun 0.3% 5787 10-18-19
321 antiwwe 0.2% 5793 10-18-19
322 Iwannabelink 0.2% 5795 10-18-19
323 Genuine Hedgehog 0.1% 5797 10-18-19
324 dragondragon18 0.1% 5801 10-18-19
325 SonicK100 0.1% 5802 10-18-19
326 Tyrouble 0.0% 5807 10-18-19
327 LancexExWx 0.0% 5808 10-18-19
327 neji_hyuuga 0.0% 5808 10-18-19
327 Over 0.0% 5808 10-18-19
327 sdj6707 Player Banned 0.0% 5808 10-18-19
327 Tran Sonic Fan Player Banned 0.0% 5808 10-18-19

This page is using the New Data Table System. [FUTURE]

Game ID: 3 | Category ID: 1
Hits: 9,541 | Hits This Month: 22 | DB Calls: 24 | Mem Usage: 5.89 MB | Time: 0.40s | Printable

The Sonic Center v3.9
Copyright 2003-2011 by The Sonic Center Team.